Estación de Los Colihues

Ultimos registro cada 15 minutos 45
Estación Fecha / Hora Temperatura Humedad Lluvia Velocidad Dirección Radiación Presion
45 Los Colihues 08-05-2026 11:00 9,4 94,1 0 0,5 56 159,4 1011,9
44 Los Colihues 08-05-2026 10:45 9,5 94,1 0 0,5 46 129,4 1012
43 Los Colihues 08-05-2026 10:30 9,2 95,2 0 0,5 45 139,4 1011,9
42 Los Colihues 08-05-2026 10:15 8,8 95,6 0 0,5 46 114,4 1012,1
41 Los Colihues 08-05-2026 10:00 8,6 96,1 0 0,5 46 64,4 1012,3
40 Los Colihues 08-05-2026 09:45 8,4 95,6 0 0,5 29 78,1 1012,5
39 Los Colihues 08-05-2026 09:30 8,3 95,5 0 1 27 39,4 1012,2
38 Los Colihues 08-05-2026 09:15 8,4 96,1 0 0,5 39 83,1 1012,2
37 Los Colihues 08-05-2026 09:00 8,1 96,8 0 1 37 91,9 1012,4
36 Los Colihues 08-05-2026 08:45 7,9 96,1 0 1 38 35,6 1012,4
35 Los Colihues 08-05-2026 08:30 7,8 96,6 0 0,5 22 25,6 1012,3
34 Los Colihues 08-05-2026 08:15 7,8 97,6 0,4 0 35 15,6 1012,3
33 Los Colihues 08-05-2026 08:00 7,9 96,2 0,4 0,5 42 1,9 1012,1
32 Los Colihues 08-05-2026 07:45 8,1 94,6 0,4 0 3 0,6 1012,1
31 Los Colihues 08-05-2026 07:30 8,3 92,7 0 0 34 0,6 1011,8
30 Los Colihues 08-05-2026 07:15 8,4 91,2 0 0 28 0,6 1011,7
29 Los Colihues 08-05-2026 07:00 8,4 91,4 0 0,5 32 0,6 1011,6
28 Los Colihues 08-05-2026 06:45 8,4 91,8 0 0,5 21 0,6 1011,9
27 Los Colihues 08-05-2026 06:30 8,3 92,4 0 0 20 0,6 1011,9
26 Los Colihues 08-05-2026 06:15 8,3 92,9 0 0 35 0,6 1012,2
25 Los Colihues 08-05-2026 06:00 8,2 93,9 0 0 37 0,6 1012,4
24 Los Colihues 08-05-2026 05:45 8,2 94 0 0 45 0,6 1012,3
23 Los Colihues 08-05-2026 05:30 8,2 94,5 0 0 52 0,6 1012,7
22 Los Colihues 08-05-2026 05:15 8,3 94,6 0 0 56 0,6 1012,9
21 Los Colihues 08-05-2026 05:00 8,3 94,2 0 0 56 0,6 1013
20 Los Colihues 08-05-2026 04:45 8,3 93,2 0 0 59 0,6 1012,8
19 Los Colihues 08-05-2026 04:30 8,4 93,9 0 0 63 0,6 1012,6
18 Los Colihues 08-05-2026 04:15 8,5 93,3 0 0 63 0,6 1012,8
17 Los Colihues 08-05-2026 04:00 8,5 92,7 0 0 63 0,6 1012,8
16 Los Colihues 08-05-2026 03:45 8,5 93,3 0 0 63 0,6 1013,6
15 Los Colihues 08-05-2026 03:30 8,5 92,7 0 0 63 0,6 1013,5
14 Los Colihues 08-05-2026 03:15 8,4 94 0 0 65 0,6 1013,6
13 Los Colihues 08-05-2026 03:00 8,4 94,2 0 0 65 0,6 1013,8
12 Los Colihues 08-05-2026 02:45 8,4 94,4 0 0 65 0,6 1013,9
11 Los Colihues 08-05-2026 02:30 8,3 94,8 0 0 67 0,6 1014
10 Los Colihues 08-05-2026 02:15 8,2 95 0 0 150 0,6 1014,2
9 Los Colihues 08-05-2026 02:00 8,1 97,2 0 0 181 0,6 1014,5
8 Los Colihues 08-05-2026 01:45 8,1 97,2 0 0 181 0,6 1014,7
7 Los Colihues 08-05-2026 01:30 7,9 98,3 0 0 181 0,6 1015,1
6 Los Colihues 08-05-2026 01:15 7,9 98,8 0 0 181 0,6 1015
5 Los Colihues 08-05-2026 01:00 7,8 98,9 0 0 181 0,6 1015,2
4 Los Colihues 08-05-2026 00:45 7,6 98,7 0 0 181 0,6 1015,3
3 Los Colihues 08-05-2026 00:30 7,7 98,4 0 0 181 0,6 1015,6
2 Los Colihues 08-05-2026 00:15 7,7 98,3 0 0 181 0,6 1015,6
1 Los Colihues 08-05-2026 00:00 7,5 98,1 0 0 181 0,6 1015,6